F69 weather

Air Park Dallas Airport
Dallas, Texas, United States

Public forecast

Using degrees Fahrenheit for public forecast. Weather courtesy of forecast.io.

Closest aviation weather report (METAR) to Air Park Dallas Airport

Closest report is Addison Airport, 3.3 nm (6.1 km) S. Retrieved 2020/02/24 15:47 UTC (60 minutes ago):

KADS 241547Z 28017G23KT 13SM SCT120 13/04 A2979

Closest aviation forecast (TAF) to Air Park Dallas Airport

Closest forecast is Dallas Love Field, 10.6 nm (19.7 km) S. Retrieved 2020/02/24 12:22 UTC (4 hours ago):

TAF KDAL 241120Z 2412/2512 24016KT P6SM SCT250 FM241500 27017G27KT P6SM FEW035 BKN250 FM241800 30018G28KT P6SM SCT035 FM242200 33011KT P6SM FEW250 FM250800 02010KT P6SM SCT050 BKN250